createdAt,value
2023-04-13T00:05:01.130Z,75.51
2023-04-13T00:15:07.707Z,75.77
2023-04-13T00:25:16.158Z,75.89
2023-04-13T00:35:23.046Z,75.86
2023-04-13T00:45:30.876Z,76.27
2023-04-13T00:55:39.607Z,76.50
2023-04-13T01:05:50.736Z,76.93
2023-04-13T01:16:01.058Z,77.25
2023-04-13T01:26:09.811Z,77.14
2023-04-13T01:36:17.969Z,77.18
2023-04-13T01:46:30.697Z,77.47
2023-04-13T01:56:37.840Z,78.12
2023-04-13T02:06:44.927Z,78.37
2023-04-13T02:16:52.559Z,78.65
2023-04-13T02:26:59.669Z,78.62
2023-04-13T02:37:06.501Z,78.84
2023-04-13T02:47:13.603Z,79.26
2023-04-13T02:57:20.502Z,79.59
2023-04-13T03:07:27.553Z,79.77
2023-04-13T03:17:34.724Z,79.97
2023-04-13T03:27:42.112Z,80.13
2023-04-13T03:37:49.059Z,80.58
2023-04-13T03:47:56.445Z,80.86
2023-04-13T03:58:03.739Z,80.91
2023-04-13T04:08:10.633Z,81.03
2023-04-13T04:18:17.681Z,81.04
2023-04-13T04:28:24.694Z,81.20
2023-04-13T04:38:33.078Z,81.24
2023-04-13T04:48:40.182Z,81.07
2023-04-13T04:58:46.710Z,81.06
2023-04-13T05:08:54.148Z,80.98
2023-04-13T05:19:01.310Z,80.86
2023-04-13T05:29:09.562Z,80.33
2023-04-13T05:39:16.416Z,79.33
2023-04-13T05:49:23.482Z,78.52
2023-04-13T05:59:31.196Z,77.76
2023-04-13T06:09:38.663Z,76.77
2023-04-13T06:19:46.180Z,75.79
2023-04-13T06:29:53.589Z,73.04
2023-04-13T06:39:59.480Z,71.58
2023-04-13T06:50:06.615Z,71.20
2023-04-13T07:00:29.025Z,69.78
2023-04-13T07:10:36.911Z,67.99
2023-04-13T07:20:44.634Z,67.48
2023-04-13T07:30:51.712Z,65.63
2023-04-13T07:40:58.727Z,63.82
2023-04-13T07:51:04.652Z,62.72
2023-04-13T08:01:11.595Z,61.77
2023-04-13T08:11:19.578Z,59.95
2023-04-13T08:21:27.026Z,60.24
2023-04-13T08:31:34.214Z,58.09
2023-04-13T08:41:45.543Z,57.88
2023-04-13T08:51:52.791Z,57.55
2023-04-13T09:02:01.287Z,55.56
2023-04-13T09:12:07.386Z,55.66
2023-04-13T09:22:17.485Z,54.23
2023-04-13T09:32:22.915Z,53.56
2023-04-13T09:42:30.122Z,51.01
2023-04-13T09:52:37.180Z,50.71
2023-04-13T10:02:44.524Z,50.69
2023-04-13T10:12:53.769Z,51.79
2023-04-13T10:23:01.459Z,51.83
2023-04-13T10:33:05.568Z,50.99
2023-04-13T10:43:33.126Z,51.96
2023-04-13T10:53:40.319Z,50.86
2023-04-13T11:04:00.753Z,50.40
2023-04-13T11:14:19.265Z,50.10
2023-04-13T11:24:33.968Z,50.13
2023-04-13T11:34:39.991Z,48.45
2023-04-13T11:44:47.110Z,49.46
2023-04-13T11:54:54.360Z,49.43
2023-04-13T12:05:00.636Z,49.07
2023-04-13T12:15:22.907Z,49.86
2023-04-13T12:25:35.858Z,48.09
2023-04-13T12:35:43.559Z,48.87
2023-04-13T12:55:56.213Z,50.04
2023-04-13T13:06:03.248Z,50.55
2023-04-13T13:16:09.427Z,50.51
2023-04-13T13:36:26.499Z,51.47
2023-04-13T13:46:33.710Z,51.81
2023-04-13T13:56:41.086Z,52.01
2023-04-13T14:06:49.729Z,52.38
2023-04-13T14:16:57.209Z,52.57
2023-04-13T14:27:04.460Z,52.99
2023-04-13T14:37:10.832Z,53.72
2023-04-13T14:47:18.245Z,54.56
2023-04-13T14:57:25.492Z,55.10
2023-04-13T15:07:32.516Z,55.45
2023-04-13T15:17:39.884Z,55.83
2023-04-13T15:27:49.615Z,56.58
2023-04-13T15:37:57.089Z,57.63
2023-04-13T15:48:04.538Z,58.88
2023-04-13T15:58:14.514Z,59.91
2023-04-13T16:08:20.787Z,60.73
2023-04-13T16:18:28.946Z,61.65
2023-04-13T16:28:37.455Z,62.63
2023-04-13T16:38:44.683Z,63.59
2023-04-13T16:48:52.177Z,64.67
2023-04-13T16:58:59.659Z,65.90
2023-04-13T17:09:07.437Z,67.11
2023-04-13T17:19:15.796Z,67.51
2023-04-13T17:29:22.881Z,68.42
2023-04-13T17:39:29.333Z,69.05
2023-04-13T17:49:35.652Z,69.75
2023-04-13T17:59:43.283Z,70.38
2023-04-13T18:09:51.099Z,71.08
2023-04-13T18:19:58.443Z,71.71
2023-04-13T18:30:03.443Z,72.44
2023-04-13T18:40:12.439Z,73.06
2023-04-13T18:50:19.540Z,73.44
2023-04-13T19:00:25.536Z,74.02
2023-04-13T19:10:31.609Z,74.33
2023-04-13T19:20:38.233Z,74.55
2023-04-13T19:30:44.635Z,74.68
2023-04-13T19:40:51.801Z,75.04
2023-04-13T19:50:59.037Z,75.30
2023-04-13T20:01:07.974Z,75.48
2023-04-13T20:11:15.242Z,75.69
2023-04-13T20:21:23.306Z,76.17
2023-04-13T20:31:32.256Z,76.41
2023-04-13T20:41:39.232Z,76.72
2023-04-13T20:51:47.197Z,76.89
2023-04-13T21:01:54.709Z,77.14
2023-04-13T21:12:02.778Z,77.58
2023-04-13T21:22:09.695Z,77.81
2023-04-13T21:32:17.112Z,78.03
2023-04-13T21:42:24.657Z,78.16
2023-04-13T21:52:31.114Z,78.51
2023-04-13T22:02:37.164Z,78.56
2023-04-13T22:12:44.558Z,78.61
2023-04-13T22:22:51.527Z,78.56
2023-04-13T22:32:58.938Z,79.13
2023-04-13T22:43:04.997Z,79.28
2023-04-13T22:53:12.164Z,79.38
2023-04-13T23:03:18.410Z,79.64
2023-04-13T23:13:24.818Z,79.60
2023-04-13T23:23:31.915Z,79.82
2023-04-13T23:33:39.110Z,79.85
2023-04-13T23:43:46.832Z,80.12
2023-04-13T23:53:53.772Z,80.28
